createdAt,value
2017-12-25T14:55:36.821Z,1.88
2017-12-25T14:56:37.317Z,1.90
2017-12-25T14:59:21.159Z,2.08
2017-12-25T15:00:21.102Z,1.73
2017-12-25T15:03:09.327Z,2.25
2017-12-25T15:04:05.895Z,2.23
2017-12-25T15:06:48.972Z,1.86
2017-12-25T15:07:50.272Z,1.88
2017-12-25T15:10:34.214Z,2.04
2017-12-25T15:11:34.544Z,2.29
2017-12-25T15:14:18.575Z,2.05
2017-12-25T15:15:18.936Z,2.04
2017-12-25T15:18:02.342Z,2.10
2017-12-25T15:19:02.802Z,2.18
2017-12-25T15:21:47.145Z,2.05
2017-12-25T15:22:46.753Z,2.07
2017-12-25T15:25:31.655Z,2.27
2017-12-25T15:26:31.143Z,2.18
2017-12-25T15:29:15.562Z,2.43
2017-12-25T15:30:15.483Z,2.28
2017-12-25T15:32:58.916Z,2.44
2017-12-25T15:33:58.853Z,2.34
2017-12-25T15:36:45.149Z,2.53
2017-12-25T15:37:45.261Z,2.40
2017-12-25T15:40:26.735Z,2.42
2017-12-25T15:41:26.688Z,2.44
2017-12-25T15:44:12.867Z,2.46
2017-12-25T15:45:12.470Z,2.47
2017-12-25T15:47:54.389Z,2.53
2017-12-25T15:48:54.493Z,2.52
2017-12-25T15:51:40.409Z,2.49
2017-12-25T15:52:39.194Z,2.23
2017-12-25T15:55:23.355Z,2.25
2017-12-25T15:56:23.239Z,2.23
2017-12-25T15:59:08.480Z,2.25
2017-12-25T16:00:07.518Z,2.36
2017-12-25T16:02:51.258Z,2.23
2017-12-25T16:03:52.185Z,2.31
2017-12-25T16:06:35.169Z,2.14
2017-12-25T16:07:35.174Z,2.32
2017-12-25T16:10:18.204Z,2.58
2017-12-25T16:11:18.516Z,2.18
2017-12-25T16:14:01.618Z,2.24
2017-12-25T16:15:01.541Z,1.97
2017-12-25T16:17:44.938Z,2.09
2017-12-25T16:18:44.881Z,2.07
2017-12-25T16:21:28.268Z,2.13
2017-12-25T16:22:28.178Z,2.23
2017-12-25T16:25:11.797Z,2.06
2017-12-25T16:26:11.678Z,2.38
2017-12-25T16:28:55.460Z,2.40
2017-12-25T16:29:55.029Z,2.22
2017-12-25T16:32:39.758Z,2.45
2017-12-25T16:33:40.221Z,2.29
2017-12-25T16:36:24.172Z,2.52
2017-12-25T16:37:23.990Z,2.34
2017-12-25T16:40:08.410Z,2.40
2017-12-25T16:41:08.316Z,2.26
2017-12-25T16:43:55.012Z,2.15
2017-12-25T16:44:52.347Z,2.42
2017-12-25T16:47:37.091Z,2.29
2017-12-25T16:48:36.691Z,2.44
2017-12-25T16:51:20.127Z,2.45
2017-12-25T16:52:20.077Z,2.48
2017-12-25T16:55:04.986Z,2.33
2017-12-25T16:56:04.886Z,2.41
2017-12-25T16:58:49.528Z,2.72
2017-12-25T16:59:48.843Z,2.72
2017-12-25T17:02:34.121Z,2.63
2017-12-25T17:03:34.050Z,2.80
2017-12-25T17:06:18.504Z,2.92
2017-12-25T17:07:17.479Z,2.90
2017-12-25T17:10:00.950Z,3.04
2017-12-25T17:11:00.859Z,2.96
2017-12-25T17:13:46.068Z,3.03
2017-12-25T17:14:45.207Z,2.91
2017-12-25T17:17:29.610Z,2.86
2017-12-25T17:18:29.583Z,3.00
2017-12-25T17:21:13.005Z,3.15
2017-12-25T17:22:12.948Z,3.14
2017-12-25T17:24:56.345Z,3.21
2017-12-25T17:25:56.308Z,3.41
2017-12-25T17:28:40.703Z,2.88
2017-12-25T17:29:40.698Z,2.91
2017-12-25T17:32:25.056Z,2.70
2017-12-25T17:33:25.597Z,2.93
2017-12-25T17:36:09.398Z,2.91
2017-12-25T17:37:09.373Z,2.79
2017-12-25T17:39:52.828Z,2.42
2017-12-25T17:40:52.833Z,2.77
2017-12-25T17:41:52.757Z,2.40
2017-12-25T17:42:52.737Z,2.56
2017-12-25T17:43:52.747Z,2.72
2017-12-25T17:44:52.989Z,2.55
2017-12-25T17:45:52.714Z,2.71
2017-12-25T17:46:52.715Z,2.54
2017-12-25T17:47:52.700Z,2.96
2017-12-25T17:48:52.705Z,2.84
2017-12-25T17:49:52.686Z,2.94
2017-12-25T17:50:52.650Z,3.06
2017-12-25T17:51:52.713Z,3.01
2017-12-25T17:52:52.653Z,3.33
2017-12-25T17:53:52.659Z,3.45
2017-12-25T17:54:52.623Z,3.38
2017-12-25T17:55:52.633Z,3.17
2017-12-25T17:56:52.629Z,3.33
2017-12-25T17:57:52.641Z,3.15
2017-12-25T17:58:52.637Z,3.19
2017-12-25T17:59:52.610Z,2.98
2017-12-25T18:00:52.591Z,3.08
2017-12-25T18:01:52.578Z,3.09
2017-12-25T18:02:52.580Z,3.36
2017-12-25T18:03:52.589Z,3.11
2017-12-25T18:04:52.571Z,3.26
2017-12-25T18:05:52.559Z,3.18
2017-12-25T18:06:52.548Z,5.76
2017-12-25T18:07:52.532Z,5.74
2017-12-25T18:08:52.537Z,4.64
2017-12-25T18:09:52.514Z,4.48
2017-12-25T18:10:52.516Z,7.13
2017-12-25T18:11:52.502Z,8.57
2017-12-25T18:12:52.491Z,6.34
2017-12-25T18:13:52.478Z,6.03
2017-12-25T18:14:52.481Z,4.94
2017-12-25T18:15:52.473Z,4.76
2017-12-25T18:16:52.470Z,4.31
2017-12-25T18:17:52.458Z,4.99
2017-12-25T18:18:52.445Z,4.55
2017-12-25T18:19:52.451Z,5.32
2017-12-25T18:20:52.432Z,7.72
2017-12-25T18:21:52.437Z,10.43
2017-12-25T18:22:52.429Z,9.47
2017-12-25T18:23:52.406Z,8.26
2017-12-25T18:24:52.395Z,7.30
2017-12-25T18:25:52.396Z,6.33
2017-12-25T18:26:52.377Z,6.97
2017-12-25T18:27:52.376Z,7.72
2017-12-25T18:28:52.361Z,5.36
2017-12-25T18:29:52.378Z,5.52
2017-12-25T18:30:52.359Z,6.59
2017-12-25T18:31:52.349Z,7.22
2017-12-25T18:32:52.335Z,6.18
2017-12-25T18:33:52.333Z,5.61
2017-12-25T18:34:52.325Z,5.63
2017-12-25T18:35:52.316Z,5.84
2017-12-25T18:36:52.312Z,6.68
2017-12-25T18:37:52.304Z,7.63
2017-12-25T18:38:52.291Z,7.00
2017-12-25T18:39:52.283Z,5.26
2017-12-25T18:40:52.280Z,6.86
2017-12-25T18:41:52.260Z,10.32
2017-12-25T18:42:52.257Z,7.64
2017-12-25T18:43:52.266Z,5.56
2017-12-25T18:44:52.242Z,7.82
2017-12-25T18:45:52.241Z,10.63
2017-12-25T18:46:52.221Z,8.82
2017-12-25T18:47:52.250Z,6.93
2017-12-25T18:48:52.208Z,6.22
2017-12-25T18:49:52.229Z,6.73
2017-12-25T18:50:52.199Z,6.99
2017-12-25T18:51:52.189Z,11.90
2017-12-25T18:52:52.184Z,20.16
2017-12-25T18:53:52.176Z,18.03
2017-12-25T18:54:52.170Z,13.23
2017-12-25T18:55:52.157Z,9.26
2017-12-25T18:56:52.159Z,12.64
2017-12-25T18:57:52.142Z,15.64
2017-12-25T18:58:52.140Z,12.94
2017-12-25T18:59:52.125Z,12.52
2017-12-25T19:00:52.117Z,15.72
2017-12-25T19:01:52.106Z,10.34
2017-12-25T19:02:52.104Z,9.30
2017-12-25T19:03:52.095Z,9.00
2017-12-25T19:04:52.107Z,11.31
2017-12-25T19:05:52.088Z,6.64
2017-12-25T19:06:52.075Z,5.73
2017-12-25T19:07:52.062Z,5.55
2017-12-25T19:08:52.063Z,6.89
2017-12-25T19:09:52.056Z,7.48
2017-12-25T19:10:52.036Z,6.62
2017-12-25T19:11:52.079Z,7.18
2017-12-25T19:12:52.073Z,8.90
2017-12-25T19:13:52.015Z,7.74
2017-12-25T19:14:52.043Z,9.52
2017-12-25T19:15:52.000Z,8.63
2017-12-25T19:16:52.010Z,7.09
2017-12-25T19:17:52.831Z,6.12
2017-12-25T19:18:52.871Z,6.38
2017-12-25T19:19:52.002Z,6.67
2017-12-25T19:20:51.971Z,5.40
2017-12-25T19:21:51.965Z,5.40
2017-12-25T19:22:51.964Z,6.42
2017-12-25T19:23:52.869Z,7.48
2017-12-25T19:24:51.975Z,7.43
2017-12-25T19:25:51.972Z,6.81
2017-12-25T19:26:51.946Z,5.98
2017-12-25T19:27:51.961Z,5.62
2017-12-25T19:28:51.960Z,6.38
2017-12-25T19:29:51.910Z,8.10
2017-12-25T19:30:51.887Z,7.05
2017-12-25T19:31:51.882Z,6.88
2017-12-25T19:32:51.928Z,6.66
2017-12-25T19:33:51.943Z,6.83
2017-12-25T19:34:51.980Z,6.40
2017-12-25T19:35:51.868Z,6.93
2017-12-25T19:36:51.839Z,6.48
2017-12-25T19:37:51.848Z,5.95
2017-12-25T19:38:51.857Z,6.33
2017-12-25T19:39:51.835Z,6.51
2017-12-25T19:40:51.832Z,6.54
2017-12-25T19:41:51.805Z,7.22
2017-12-25T19:42:51.829Z,8.02
2017-12-25T19:43:51.782Z,8.29
2017-12-25T19:44:52.355Z,8.14
2017-12-25T19:45:51.788Z,9.66
2017-12-25T19:46:51.760Z,9.40
2017-12-25T19:47:51.761Z,8.51
2017-12-25T19:48:51.791Z,8.30
2017-12-25T19:49:51.745Z,8.92
2017-12-25T19:50:51.752Z,8.16
2017-12-25T19:51:51.733Z,7.30
2017-12-25T19:52:51.750Z,7.24
2017-12-25T19:53:51.782Z,7.41
2017-12-25T19:54:51.700Z,7.25
2017-12-25T19:55:51.743Z,7.03
2017-12-25T19:56:51.718Z,6.84
2017-12-25T19:57:51.710Z,6.47
2017-12-25T19:58:51.715Z,6.55
2017-12-25T19:59:51.673Z,6.26
2017-12-25T20:00:51.663Z,6.64
2017-12-25T20:01:51.662Z,6.60
2017-12-25T20:02:51.652Z,7.40
2017-12-25T20:03:51.628Z,7.08
2017-12-25T20:04:51.634Z,6.72
2017-12-25T20:05:51.643Z,6.61
2017-12-25T20:06:51.642Z,7.93
2017-12-25T20:07:51.624Z,7.64
2017-12-25T20:08:51.608Z,7.32
2017-12-25T20:09:51.626Z,6.96
2017-12-25T20:10:51.571Z,6.76
2017-12-25T20:11:51.581Z,7.61
2017-12-25T20:12:51.560Z,7.01
2017-12-25T20:13:51.564Z,6.68
2017-12-25T20:14:51.548Z,6.51
2017-12-25T20:15:51.568Z,6.46
2017-12-25T20:16:51.549Z,6.78
2017-12-25T20:17:51.532Z,6.98
2017-12-25T20:18:51.539Z,6.87
2017-12-25T20:19:51.541Z,7.01
2017-12-25T20:20:51.513Z,6.37
2017-12-25T20:21:51.519Z,7.17
2017-12-25T20:22:51.517Z,6.95
2017-12-25T20:23:51.470Z,6.26
2017-12-25T20:24:51.479Z,6.55
2017-12-25T20:25:51.468Z,6.04
2017-12-25T20:26:51.510Z,6.81
2017-12-25T20:27:51.447Z,6.46
2017-12-25T20:28:51.460Z,6.87
2017-12-25T20:29:51.431Z,7.26
2017-12-25T20:30:51.422Z,7.45
2017-12-25T20:31:51.422Z,6.94
2017-12-25T20:32:51.412Z,7.17
2017-12-25T20:33:51.405Z,7.34
2017-12-25T20:34:51.404Z,7.29
2017-12-25T20:35:51.390Z,6.96
2017-12-25T20:36:51.418Z,6.78
2017-12-25T20:37:51.368Z,6.84
2017-12-25T20:38:51.369Z,6.40
2017-12-25T20:39:51.363Z,6.88
2017-12-25T20:40:51.361Z,6.44
2017-12-25T20:41:51.336Z,6.32
2017-12-25T20:42:51.341Z,6.15
2017-12-25T20:43:51.337Z,5.95
2017-12-25T20:44:51.350Z,5.79
2017-12-25T20:45:51.313Z,6.28
2017-12-25T20:46:51.304Z,6.22
2017-12-25T20:47:51.298Z,5.85
2017-12-25T20:48:51.299Z,5.34
2017-12-25T20:49:51.284Z,5.20
2017-12-25T20:50:51.307Z,5.35
2017-12-25T20:51:51.277Z,7.44
2017-12-25T20:52:51.249Z,6.49
2017-12-25T20:53:51.247Z,5.22
2017-12-25T20:54:51.244Z,5.04
2017-12-25T20:55:51.871Z,4.70
2017-12-25T20:56:51.262Z,5.08
2017-12-25T20:57:51.231Z,4.64
2017-12-25T20:58:51.221Z,4.70
2017-12-25T20:59:51.214Z,4.86
2017-12-25T21:00:51.203Z,5.06
2017-12-25T21:01:51.206Z,4.94
2017-12-25T21:02:51.175Z,4.92
2017-12-25T21:03:51.188Z,4.40
2017-12-25T21:04:51.214Z,4.32
2017-12-25T21:05:51.159Z,4.46
2017-12-25T21:06:51.149Z,4.28
2017-12-25T21:07:51.144Z,4.14
2017-12-25T21:08:51.135Z,4.50
2017-12-25T21:09:51.139Z,4.80
2017-12-25T21:10:51.129Z,4.38
2017-12-25T21:11:51.123Z,4.08
2017-12-25T21:12:51.112Z,4.20
2017-12-25T21:13:51.100Z,4.12
2017-12-25T21:14:51.112Z,4.12
2017-12-25T21:15:51.078Z,3.88
2017-12-25T21:16:51.083Z,4.05
2017-12-25T21:17:51.066Z,4.22
2017-12-25T21:18:51.070Z,4.03
2017-12-25T21:19:51.041Z,4.38
2017-12-25T21:20:51.042Z,3.87
2017-12-25T21:21:51.029Z,3.99
2017-12-25T21:22:51.023Z,4.32
2017-12-25T21:23:51.030Z,4.36
2017-12-25T21:24:51.010Z,4.28
2017-12-25T21:25:51.023Z,4.13
2017-12-25T21:26:50.988Z,4.16
2017-12-25T21:27:50.990Z,4.28
2017-12-25T21:28:50.978Z,4.20
2017-12-25T21:29:50.988Z,4.12
2017-12-25T21:30:50.961Z,4.04
2017-12-25T21:31:50.968Z,4.11
2017-12-25T21:32:50.967Z,4.26
2017-12-25T21:33:50.949Z,4.41
2017-12-25T21:34:50.929Z,4.24
2017-12-25T21:35:50.921Z,4.13
2017-12-25T21:36:50.914Z,4.00
2017-12-25T21:37:50.914Z,4.11
2017-12-25T21:38:50.903Z,4.43
2017-12-25T21:39:50.891Z,4.34
2017-12-25T21:40:50.893Z,4.24
2017-12-25T21:41:50.874Z,4.26
2017-12-25T21:42:50.872Z,4.41
2017-12-25T21:43:50.867Z,4.30
2017-12-25T21:44:50.874Z,4.77
2017-12-25T21:45:50.849Z,4.24
2017-12-25T21:46:50.827Z,4.47
2017-12-25T21:47:50.829Z,4.55
2017-12-25T21:48:50.812Z,4.25
2017-12-25T21:49:50.815Z,4.60
2017-12-25T21:50:50.800Z,5.02
2017-12-25T21:51:50.801Z,4.62
2017-12-25T21:52:50.799Z,4.57
2017-12-25T21:53:50.823Z,4.82
2017-12-25T21:54:50.789Z,5.23
2017-12-25T21:55:50.770Z,5.90
2017-12-25T21:56:50.755Z,5.55
2017-12-25T21:57:50.756Z,5.08
2017-12-25T21:58:50.750Z,5.11
2017-12-25T21:59:50.726Z,4.99
2017-12-25T22:00:50.725Z,4.76
2017-12-25T22:01:50.721Z,5.69
2017-12-25T22:02:50.710Z,6.42
2017-12-25T22:03:50.706Z,6.95
2017-12-25T22:04:50.689Z,5.73
2017-12-25T22:05:50.682Z,5.23
2017-12-25T22:06:50.673Z,5.06
2017-12-25T22:07:50.674Z,8.88
2017-12-25T22:08:50.667Z,9.14
2017-12-25T22:09:50.649Z,8.12
2017-12-25T22:10:50.649Z,7.43
2017-12-25T22:11:50.653Z,7.02
2017-12-25T22:12:50.624Z,9.91
2017-12-25T22:13:50.627Z,7.80
2017-12-25T22:14:51.090Z,5.88
2017-12-25T22:15:50.607Z,4.63
2017-12-25T22:16:50.589Z,5.45
2017-12-25T22:17:50.576Z,13.43
2017-12-25T22:18:50.585Z,19.90
2017-12-25T22:19:50.603Z,12.08
2017-12-25T22:20:50.557Z,12.72
2017-12-25T22:21:50.557Z,7.58
2017-12-25T22:22:50.547Z,13.29
2017-12-25T22:23:50.555Z,16.79
2017-12-25T22:24:50.528Z,17.92
2017-12-25T22:25:50.529Z,16.85
2017-12-25T22:26:50.517Z,10.70
2017-12-25T22:27:50.508Z,8.82
2017-12-25T22:28:50.498Z,7.34
2017-12-25T22:29:50.496Z,4.92
2017-12-25T22:30:50.495Z,4.73
2017-12-25T22:31:50.484Z,4.55
2017-12-25T22:32:50.475Z,6.86
2017-12-25T22:33:50.451Z,6.43
2017-12-25T22:34:50.447Z,5.28
2017-12-25T22:35:50.454Z,4.66
2017-12-25T22:36:50.439Z,4.93
2017-12-25T22:37:50.770Z,6.54
2017-12-25T22:38:50.685Z,5.46
2017-12-25T22:39:50.589Z,4.87
2017-12-25T22:40:50.444Z,3.98
2017-12-25T22:41:50.390Z,4.05
2017-12-25T22:42:50.375Z,6.92
2017-12-25T22:43:50.382Z,5.32
2017-12-25T22:44:50.358Z,4.98
2017-12-25T22:45:50.349Z,4.65
2017-12-25T22:46:50.350Z,4.54
2017-12-25T22:47:50.333Z,5.06
2017-12-25T22:48:50.353Z,4.39
2017-12-25T22:49:50.313Z,4.38
2017-12-25T22:50:50.322Z,4.55
2017-12-25T22:51:50.345Z,4.59
2017-12-25T22:52:50.303Z,4.56
2017-12-25T22:53:50.329Z,4.71
2017-12-25T22:54:50.273Z,4.57
2017-12-25T22:55:50.290Z,4.45
2017-12-25T22:56:50.251Z,4.29
2017-12-25T22:57:50.249Z,4.72
2017-12-25T22:58:50.237Z,4.96
2017-12-25T22:59:50.229Z,6.69
2017-12-25T23:00:50.217Z,6.94
2017-12-25T23:01:50.216Z,5.75
2017-12-25T23:02:50.211Z,5.70
2017-12-25T23:03:50.202Z,5.31
2017-12-25T23:04:50.186Z,6.27
2017-12-25T23:05:50.184Z,5.52
2017-12-25T23:06:50.160Z,4.89
2017-12-25T23:07:50.232Z,4.80
2017-12-25T23:08:50.148Z,6.20
2017-12-25T23:09:50.160Z,6.67
2017-12-25T23:10:50.150Z,7.42
2017-12-25T23:11:51.684Z,8.06
2017-12-25T23:12:50.110Z,7.08
2017-12-25T23:15:35.029Z,5.12
2017-12-25T23:16:34.903Z,4.82
2017-12-25T23:19:17.887Z,5.10
2017-12-25T23:20:17.866Z,5.06
2017-12-25T23:23:02.628Z,5.62
2017-12-25T23:24:02.623Z,5.49
2017-12-25T23:26:47.632Z,5.01
2017-12-25T23:27:47.391Z,5.30
2017-12-25T23:30:31.513Z,5.73
2017-12-25T23:31:31.146Z,5.58
2017-12-25T23:34:14.225Z,5.39
2017-12-25T23:35:14.106Z,5.07
2017-12-25T23:37:57.551Z,5.61
2017-12-25T23:38:57.449Z,5.53
2017-12-25T23:41:41.271Z,5.77
2017-12-25T23:42:41.238Z,5.70
2017-12-25T23:45:24.692Z,5.93
2017-12-25T23:46:24.582Z,5.51
2017-12-25T23:49:08.949Z,5.97
2017-12-25T23:50:08.876Z,5.78
2017-12-25T23:52:53.272Z,5.84
2017-12-25T23:53:53.300Z,6.08
2017-12-25T23:56:36.366Z,6.06
2017-12-25T23:57:36.240Z,6.28
